sensor_id;sensor_type;location;lat;lon;timestamp;temperature;humidity
997;DHT22;487;50.126;8.698;2024-03-22T00:00:48;12.80;11.70
997;DHT22;487;50.126;8.698;2024-03-22T00:03:14;12.70;12.60
997;DHT22;487;50.126;8.698;2024-03-22T00:05:41;12.60;13.40
997;DHT22;487;50.126;8.698;2024-03-22T00:08:07;12.60;14.40
997;DHT22;487;50.126;8.698;2024-03-22T00:10:35;12.60;15.40
997;DHT22;487;50.126;8.698;2024-03-22T00:13:01;12.60;16.10
997;DHT22;487;50.126;8.698;2024-03-22T00:15:29;12.50;16.80
997;DHT22;487;50.126;8.698;2024-03-22T00:17:55;12.40;17.80
997;DHT22;487;50.126;8.698;2024-03-22T00:22:48;12.40;18.50
997;DHT22;487;50.126;8.698;2024-03-22T00:25:15;12.50;19.10
997;DHT22;487;50.126;8.698;2024-03-22T00:27:41;12.50;19.70
997;DHT22;487;50.126;8.698;2024-03-22T00:30:08;12.50;20.10
997;DHT22;487;50.126;8.698;2024-03-22T00:32:36;12.40;20.90
997;DHT22;487;50.126;8.698;2024-03-22T00:37:30;12.50;21.90
997;DHT22;487;50.126;8.698;2024-03-22T00:39:57;12.50;22.30
997;DHT22;487;50.126;8.698;2024-03-22T00:44:50;12.50;24.10
997;DHT22;487;50.126;8.698;2024-03-22T00:47:16;12.50;24.00
997;DHT22;487;50.126;8.698;2024-03-22T00:49:44;12.50;24.70
997;DHT22;487;50.126;8.698;2024-03-22T00:52:10;12.50;24.90
997;DHT22;487;50.126;8.698;2024-03-22T00:54:37;12.50;24.80
997;DHT22;487;50.126;8.698;2024-03-22T00:57:06;12.40;25.50
997;DHT22;487;50.126;8.698;2024-03-22T00:59:33;12.40;25.80
997;DHT22;487;50.126;8.698;2024-03-22T01:01:59;12.40;26.50
997;DHT22;487;50.126;8.698;2024-03-22T01:04:26;12.40;27.40
997;DHT22;487;50.126;8.698;2024-03-22T01:06:55;12.40;27.50
997;DHT22;487;50.126;8.698;2024-03-22T01:09:22;12.40;27.20
997;DHT22;487;50.126;8.698;2024-03-22T01:11:48;12.40;28.00
997;DHT22;487;50.126;8.698;2024-03-22T01:16:42;12.30;28.90
997;DHT22;487;50.126;8.698;2024-03-22T01:19:09;12.30;29.70
997;DHT22;487;50.126;8.698;2024-03-22T01:26:30;12.20;32.00
997;DHT22;487;50.126;8.698;2024-03-22T01:28:56;12.20;32.30
997;DHT22;487;50.126;8.698;2024-03-22T01:31:22;12.20;33.00
997;DHT22;487;50.126;8.698;2024-03-22T01:33:49;12.10;33.90
997;DHT22;487;50.126;8.698;2024-03-22T01:36:15;12.10;35.20
997;DHT22;487;50.126;8.698;2024-03-22T01:38:42;12.10;35.20
997;DHT22;487;50.126;8.698;2024-03-22T01:41:09;12.00;36.80
997;DHT22;487;50.126;8.698;2024-03-22T01:43:36;12.00;37.60
997;DHT22;487;50.126;8.698;2024-03-22T01:46:02;12.00;37.80
997;DHT22;487;50.126;8.698;2024-03-22T01:48:31;12.00;38.60
997;DHT22;487;50.126;8.698;2024-03-22T01:50:57;12.00;39.40
997;DHT22;487;50.126;8.698;2024-03-22T01:53:24;12.10;39.90
997;DHT22;487;50.126;8.698;2024-03-22T01:55:50;12.10;40.10
997;DHT22;487;50.126;8.698;2024-03-22T01:58:19;12.10;40.20
997;DHT22;487;50.126;8.698;2024-03-22T02:00:45;12.10;40.40
997;DHT22;487;50.126;8.698;2024-03-22T02:03:12;12.10;40.60
997;DHT22;487;50.126;8.698;2024-03-22T02:05:38;12.10;40.70
997;DHT22;487;50.126;8.698;2024-03-22T02:08:05;12.10;40.60
997;DHT22;487;50.126;8.698;2024-03-22T02:10:31;12.10;41.70
997;DHT22;487;50.126;8.698;2024-03-22T02:12:58;12.10;41.00
997;DHT22;487;50.126;8.698;2024-03-22T02:15:26;12.10;41.40
997;DHT22;487;50.126;8.698;2024-03-22T02:20:19;12.00;42.40
997;DHT22;487;50.126;8.698;2024-03-22T02:22:46;12.00;41.90
997;DHT22;487;50.126;8.698;2024-03-22T02:25:13;12.00;41.60
997;DHT22;487;50.126;8.698;2024-03-22T02:27:41;12.00;42.20
997;DHT22;487;50.126;8.698;2024-03-22T02:30:08;11.90;42.20
997;DHT22;487;50.126;8.698;2024-03-22T02:32:35;11.90;42.10
997;DHT22;487;50.126;8.698;2024-03-22T02:35:03;11.80;42.50
997;DHT22;487;50.126;8.698;2024-03-22T02:37:30;11.90;43.40
997;DHT22;487;50.126;8.698;2024-03-22T02:39:57;11.80;44.00
997;DHT22;487;50.126;8.698;2024-03-22T02:42:25;11.80;45.20
997;DHT22;487;50.126;8.698;2024-03-22T02:44:52;11.80;44.80
997;DHT22;487;50.126;8.698;2024-03-22T02:47:19;11.80;44.70
997;DHT22;487;50.126;8.698;2024-03-22T02:49:45;11.80;45.20
997;DHT22;487;50.126;8.698;2024-03-22T02:52:12;11.80;45.90
997;DHT22;487;50.126;8.698;2024-03-22T02:54:37;11.70;45.90
997;DHT22;487;50.126;8.698;2024-03-22T02:59:32;11.70;47.10
997;DHT22;487;50.126;8.698;2024-03-22T03:01:59;11.60;58.20
997;DHT22;487;50.126;8.698;2024-03-22T03:04:25;11.60;48.10
997;DHT22;487;50.126;8.698;2024-03-22T03:06:52;11.50;49.30
997;DHT22;487;50.126;8.698;2024-03-22T03:09:18;11.50;59.70
997;DHT22;487;50.126;8.698;2024-03-22T03:11:46;11.50;51.40
997;DHT22;487;50.126;8.698;2024-03-22T03:14:12;11.50;51.90
997;DHT22;487;50.126;8.698;2024-03-22T03:16:40;11.50;53.10
997;DHT22;487;50.126;8.698;2024-03-22T03:21:33;11.40;53.50
997;DHT22;487;50.126;8.698;2024-03-22T03:23:59;11.40;65.00
997;DHT22;487;50.126;8.698;2024-03-22T03:28:53;11.40;56.80
997;DHT22;487;50.126;8.698;2024-03-22T03:31:21;11.30;58.20
997;DHT22;487;50.126;8.698;2024-03-22T03:33:48;11.30;69.40
997;DHT22;487;50.126;8.698;2024-03-22T03:36:15;11.30;61.10
997;DHT22;487;50.126;8.698;2024-03-22T03:38:41;11.30;61.80
997;DHT22;487;50.126;8.698;2024-03-22T03:41:08;11.30;64.20
997;DHT22;487;50.126;8.698;2024-03-22T03:46:01;11.20;66.20
997;DHT22;487;50.126;8.698;2024-03-22T03:48:28;11.30;67.40
997;DHT22;487;50.126;8.698;2024-03-22T03:50:56;11.30;67.40
997;DHT22;487;50.126;8.698;2024-03-22T03:53:24;11.20;78.60
997;DHT22;487;50.126;8.698;2024-03-22T03:55:51;11.30;69.10
997;DHT22;487;50.126;8.698;2024-03-22T03:58:17;11.30;80.70
997;DHT22;487;50.126;8.698;2024-03-22T04:00:44;11.30;78.80
997;DHT22;487;50.126;8.698;2024-03-22T04:03:10;11.30;68.00
997;DHT22;487;50.126;8.698;2024-03-22T04:05:37;11.20;67.70
997;DHT22;487;50.126;8.698;2024-03-22T04:08:05;11.20;67.70
997;DHT22;487;50.126;8.698;2024-03-22T04:10:32;11.20;78.30
997;DHT22;487;50.126;8.698;2024-03-22T04:12:58;11.10;67.30
997;DHT22;487;50.126;8.698;2024-03-22T04:15:25;11.00;67.50
997;DHT22;487;50.126;8.698;2024-03-22T04:17:51;11.00;68.90
997;DHT22;487;50.126;8.698;2024-03-22T04:20:18;11.00;68.70
997;DHT22;487;50.126;8.698;2024-03-22T04:22:45;11.00;69.30
997;DHT22;487;50.126;8.698;2024-03-22T04:30:07;10.90;71.00
997;DHT22;487;50.126;8.698;2024-03-22T04:32:34;10.90;72.00
997;DHT22;487;50.126;8.698;2024-03-22T04:35:02;10.90;76.00
997;DHT22;487;50.126;8.698;2024-03-22T04:37:29;10.90;76.00
997;DHT22;487;50.126;8.698;2024-03-22T04:39:56;10.90;77.00
997;DHT22;487;50.126;8.698;2024-03-22T04:42:24;10.90;77.10
997;DHT22;487;50.126;8.698;2024-03-22T04:44:51;10.90;77.80
997;DHT22;487;50.126;8.698;2024-03-22T04:47:18;10.90;77.80
997;DHT22;487;50.126;8.698;2024-03-22T04:49:44;10.90;77.90
997;DHT22;487;50.126;8.698;2024-03-22T04:52:11;10.90;78.20
997;DHT22;487;50.126;8.698;2024-03-22T04:57:04;10.90;78.30
997;DHT22;487;50.126;8.698;2024-03-22T04:59:32;10.90;88.80
997;DHT22;487;50.126;8.698;2024-03-22T05:01:58;10.90;80.00
997;DHT22;487;50.126;8.698;2024-03-22T05:04:24;10.90;80.70
997;DHT22;487;50.126;8.698;2024-03-22T05:06:51;10.90;81.80
997;DHT22;487;50.126;8.698;2024-03-22T05:09:17;10.90;91.20
997;DHT22;487;50.126;8.698;2024-03-22T05:11:44;10.90;82.60
997;DHT22;487;50.126;8.698;2024-03-22T05:14:15;10.90;82.80
997;DHT22;487;50.126;8.698;2024-03-22T05:19:10;10.90;83.80
997;DHT22;487;50.126;8.698;2024-03-22T05:21:37;11.60;92.70
997;DHT22;487;50.126;8.698;2024-03-22T05:24:03;10.90;84.60
997;DHT22;487;50.126;8.698;2024-03-22T05:26:30;10.80;82.70
997;DHT22;487;50.126;8.698;2024-03-22T05:29:01;10.80;91.60
997;DHT22;487;50.126;8.698;2024-03-22T05:31:29;10.80;91.70
997;DHT22;487;50.126;8.698;2024-03-22T05:36:23;10.80;84.20
997;DHT22;487;50.126;8.698;2024-03-22T05:38:50;10.70;84.70
997;DHT22;487;50.126;8.698;2024-03-22T05:41:16;10.90;85.20
997;DHT22;487;50.126;8.698;2024-03-22T05:46:10;10.90;86.40
997;DHT22;487;50.126;8.698;2024-03-22T05:48:36;10.90;93.20
997;DHT22;487;50.126;8.698;2024-03-22T05:51:04;11.00;85.30
997;DHT22;487;50.126;8.698;2024-03-22T05:53:30;11.00;92.90
997;DHT22;487;50.126;8.698;2024-03-22T05:55:57;11.00;85.10
997;DHT22;487;50.126;8.698;2024-03-22T05:58:23;11.00;92.50
997;DHT22;487;50.126;8.698;2024-03-22T06:00:50;11.10;92.40
997;DHT22;487;50.126;8.698;2024-03-22T06:03:19;11.00;85.00
997;DHT22;487;50.126;8.698;2024-03-22T06:05:46;11.10;85.90
997;DHT22;487;50.126;8.698;2024-03-22T06:08:14;11.20;85.00
997;DHT22;487;50.126;8.698;2024-03-22T06:10:44;11.20;85.40
997;DHT22;487;50.126;8.698;2024-03-22T06:13:10;11.30;92.40
997;DHT22;487;50.126;8.698;2024-03-22T06:15:37;11.30;84.90
997;DHT22;487;50.126;8.698;2024-03-22T06:18:04;11.30;92.60
997;DHT22;487;50.126;8.698;2024-03-22T06:20:31;11.30;92.10
997;DHT22;487;50.126;8.698;2024-03-22T06:22:57;11.30;91.40
997;DHT22;487;50.126;8.698;2024-03-22T06:27:52;11.40;84.10
997;DHT22;487;50.126;8.698;2024-03-22T06:30:19;11.50;82.60
997;DHT22;487;50.126;8.698;2024-03-22T06:32:45;11.50;91.20
997;DHT22;487;50.126;8.698;2024-03-22T06:35:13;11.50;90.80
997;DHT22;487;50.126;8.698;2024-03-22T06:37:39;11.50;79.40
997;DHT22;487;50.126;8.698;2024-03-22T06:40:07;11.60;88.90
997;DHT22;487;50.126;8.698;2024-03-22T06:45:03;11.60;75.00
997;DHT22;487;50.126;8.698;2024-03-22T06:47:29;11.60;73.40
997;DHT22;487;50.126;8.698;2024-03-22T06:49:56;11.60;72.40
997;DHT22;487;50.126;8.698;2024-03-22T06:52:22;11.60;71.50
997;DHT22;487;50.126;8.698;2024-03-22T06:54:49;11.70;71.40
997;DHT22;487;50.126;8.698;2024-03-22T06:57:15;11.70;70.80
997;DHT22;487;50.126;8.698;2024-03-22T07:07:06;11.70;69.30
997;DHT22;487;50.126;8.698;2024-03-22T07:09:33;11.70;69.10
997;DHT22;487;50.126;8.698;2024-03-22T07:11:59;11.70;69.00
997;DHT22;487;50.126;8.698;2024-03-22T07:16:54;11.80;69.10
997;DHT22;487;50.126;8.698;2024-03-22T07:19:21;11.80;68.40
997;DHT22;487;50.126;8.698;2024-03-22T07:21:47;11.80;69.00
997;DHT22;487;50.126;8.698;2024-03-22T07:24:14;11.80;69.30
997;DHT22;487;50.126;8.698;2024-03-22T07:26:40;11.90;69.90
997;DHT22;487;50.126;8.698;2024-03-22T07:31:33;11.90;69.50
997;DHT22;487;50.126;8.698;2024-03-22T07:38:55;11.90;70.60
997;DHT22;487;50.126;8.698;2024-03-22T07:43:49;11.90;71.40
997;DHT22;487;50.126;8.698;2024-03-22T07:46:15;12.00;73.80
997;DHT22;487;50.126;8.698;2024-03-22T07:48:42;12.00;74.30
997;DHT22;487;50.126;8.698;2024-03-22T07:53:37;12.00;74.70
997;DHT22;487;50.126;8.698;2024-03-22T07:56:03;12.00;76.90
997;DHT22;487;50.126;8.698;2024-03-22T07:58:30;12.00;76.70
997;DHT22;487;50.126;8.698;2024-03-22T08:00:56;12.10;86.30
997;DHT22;487;50.126;8.698;2024-03-22T08:03:23;12.10;77.70
997;DHT22;487;50.126;8.698;2024-03-22T08:05:49;12.10;76.40
997;DHT22;487;50.126;8.698;2024-03-22T08:08:18;12.10;76.40
997;DHT22;487;50.126;8.698;2024-03-22T08:10:44;12.10;76.80
997;DHT22;487;50.126;8.698;2024-03-22T08:13:11;12.20;76.40
997;DHT22;487;50.126;8.698;2024-03-22T08:18:05;12.20;76.80
997;DHT22;487;50.126;8.698;2024-03-22T08:20:31;12.30;78.00
997;DHT22;487;50.126;8.698;2024-03-22T08:22:59;12.30;76.10
997;DHT22;487;50.126;8.698;2024-03-22T08:27:54;12.40;74.60
997;DHT22;487;50.126;8.698;2024-03-22T08:30:21;12.40;74.20
997;DHT22;487;50.126;8.698;2024-03-22T08:37:41;12.40;74.10
997;DHT22;487;50.126;8.698;2024-03-22T08:42:37;12.40;75.00
997;DHT22;487;50.126;8.698;2024-03-22T08:45:04;12.40;74.70
997;DHT22;487;50.126;8.698;2024-03-22T08:47:31;12.60;75.60
997;DHT22;487;50.126;8.698;2024-03-22T08:49:59;12.60;85.70
997;DHT22;487;50.126;8.698;2024-03-22T08:54:52;12.80;75.10
997;DHT22;487;50.126;8.698;2024-03-22T09:02:15;13.10;73.40
997;DHT22;487;50.126;8.698;2024-03-22T09:09:36;13.40;69.40
997;DHT22;487;50.126;8.698;2024-03-22T09:12:03;13.40;82.20
997;DHT22;487;50.126;8.698;2024-03-22T09:14:29;13.50;70.30
997;DHT22;487;50.126;8.698;2024-03-22T09:19:24;13.70;66.70
997;DHT22;487;50.126;8.698;2024-03-22T09:21:51;13.80;64.10
997;DHT22;487;50.126;8.698;2024-03-22T09:24:17;13.80;64.60
997;DHT22;487;50.126;8.698;2024-03-22T09:26:44;13.90;64.20
997;DHT22;487;50.126;8.698;2024-03-22T09:29:10;13.90;63.80
997;DHT22;487;50.126;8.698;2024-03-22T09:34:05;14.10;63.00
997;DHT22;487;50.126;8.698;2024-03-22T09:36:32;14.20;59.00
997;DHT22;487;50.126;8.698;2024-03-22T09:39:01;14.10;58.10
997;DHT22;487;50.126;8.698;2024-03-22T09:41:31;14.00;57.00
997;DHT22;487;50.126;8.698;2024-03-22T09:43:58;14.10;59.00
997;DHT22;487;50.126;8.698;2024-03-22T09:46:27;14.20;60.20
997;DHT22;487;50.126;8.698;2024-03-22T09:48:55;14.30;60.10
997;DHT22;487;50.126;8.698;2024-03-22T09:51:27;14.40;57.70
997;DHT22;487;50.126;8.698;2024-03-22T09:56:23;14.50;55.70
997;DHT22;487;50.126;8.698;2024-03-22T09:58:50;14.40;56.30
997;DHT22;487;50.126;8.698;2024-03-22T10:01:17;14.30;53.40
997;DHT22;487;50.126;8.698;2024-03-22T10:03:44;14.80;55.70
997;DHT22;487;50.126;8.698;2024-03-22T10:06:11;14.30;57.10
997;DHT22;487;50.126;8.698;2024-03-22T10:08:39;14.40;58.30
997;DHT22;487;50.126;8.698;2024-03-22T10:11:05;14.50;58.10
997;DHT22;487;50.126;8.698;2024-03-22T10:13:32;14.50;58.50
997;DHT22;487;50.126;8.698;2024-03-22T10:15:58;14.70;56.10
997;DHT22;487;50.126;8.698;2024-03-22T10:18:26;14.70;55.90
997;DHT22;487;50.126;8.698;2024-03-22T10:21:00;14.80;57.10
997;DHT22;487;50.126;8.698;2024-03-22T10:28:23;15.20;58.00
997;DHT22;487;50.126;8.698;2024-03-22T10:30:51;15.30;55.30
997;DHT22;487;50.126;8.698;2024-03-22T10:33:19;15.30;66.90
997;DHT22;487;50.126;8.698;2024-03-22T10:35:46;15.50;53.80
997;DHT22;487;50.126;8.698;2024-03-22T10:38:14;15.40;54.00
997;DHT22;487;50.126;8.698;2024-03-22T10:40:44;15.50;64.00
997;DHT22;487;50.126;8.698;2024-03-22T10:43:13;15.70;53.70
997;DHT22;487;50.126;8.698;2024-03-22T10:45:40;15.80;50.90
997;DHT22;487;50.126;8.698;2024-03-22T10:48:09;15.80;50.90
997;DHT22;487;50.126;8.698;2024-03-22T10:50:39;15.90;59.30
997;DHT22;487;50.126;8.698;2024-03-22T10:53:09;15.80;48.80
997;DHT22;487;50.126;8.698;2024-03-22T10:55:38;15.90;47.60
997;DHT22;487;50.126;8.698;2024-03-22T10:58:05;15.90;47.60
997;DHT22;487;50.126;8.698;2024-03-22T11:00:34;15.80;47.80
997;DHT22;487;50.126;8.698;2024-03-22T11:03:03;15.90;49.00
997;DHT22;487;50.126;8.698;2024-03-22T11:05:29;15.90;59.00
997;DHT22;487;50.126;8.698;2024-03-22T11:08:00;16.00;49.30
997;DHT22;487;50.126;8.698;2024-03-22T11:10:29;16.20;50.50
997;DHT22;487;50.126;8.698;2024-03-22T11:15:28;16.40;51.50
997;DHT22;487;50.126;8.698;2024-03-22T11:17:57;16.60;51.30
997;DHT22;487;50.126;8.698;2024-03-22T11:20:23;16.70;59.90
997;DHT22;487;50.126;8.698;2024-03-22T11:22:51;16.90;57.60
997;DHT22;487;50.126;8.698;2024-03-22T11:25:17;16.80;55.60
997;DHT22;487;50.126;8.698;2024-03-22T11:27:45;16.80;47.40
997;DHT22;487;50.126;8.698;2024-03-22T11:30:11;16.80;46.50
997;DHT22;487;50.126;8.698;2024-03-22T11:32:39;16.80;71.20
997;DHT22;487;50.126;8.698;2024-03-22T11:35:11;16.90;48.10
997;DHT22;487;50.126;8.698;2024-03-22T11:37:39;16.90;46.40
997;DHT22;487;50.126;8.698;2024-03-22T11:40:06;16.80;57.80
997;DHT22;487;50.126;8.698;2024-03-22T11:42:34;16.90;47.40
997;DHT22;487;50.126;8.698;2024-03-22T11:45:01;16.90;48.10
997;DHT22;487;50.126;8.698;2024-03-22T11:47:29;16.70;47.40
997;DHT22;487;50.126;8.698;2024-03-22T11:49:55;16.70;58.00
997;DHT22;487;50.126;8.698;2024-03-22T11:52:25;16.70;47.70
997;DHT22;487;50.126;8.698;2024-03-22T11:54:52;16.60;58.30
997;DHT22;487;50.126;8.698;2024-03-22T11:57:20;16.50;48.20
997;DHT22;487;50.126;8.698;2024-03-22T11:59:47;16.50;58.50
997;DHT22;487;50.126;8.698;2024-03-22T12:02:14;16.40;59.50
997;DHT22;487;50.126;8.698;2024-03-22T12:04:41;16.80;51.00
997;DHT22;487;50.126;8.698;2024-03-22T12:07:10;16.50;50.70
997;DHT22;487;50.126;8.698;2024-03-22T12:09:39;16.40;50.50
997;DHT22;487;50.126;8.698;2024-03-22T12:12:08;16.40;52.30
997;DHT22;487;50.126;8.698;2024-03-22T12:14:35;16.50;53.50
997;DHT22;487;50.126;8.698;2024-03-22T12:17:02;16.50;53.10
997;DHT22;487;50.126;8.698;2024-03-22T12:22:01;16.60;54.90
997;DHT22;487;50.126;8.698;2024-03-22T12:24:28;16.70;66.40
997;DHT22;487;50.126;8.698;2024-03-22T12:26:56;16.80;55.70
997;DHT22;487;50.126;8.698;2024-03-22T12:29:22;16.90;56.30
997;DHT22;487;50.126;8.698;2024-03-22T12:31:49;17.00;67.50
997;DHT22;487;50.126;8.698;2024-03-22T12:34:16;17.10;67.40
997;DHT22;487;50.126;8.698;2024-03-22T12:36:43;17.30;56.40
997;DHT22;487;50.126;8.698;2024-03-22T12:41:37;17.30;56.20
997;DHT22;487;50.126;8.698;2024-03-22T12:46:33;17.50;44.70
997;DHT22;487;50.126;8.698;2024-03-22T12:51:26;17.40;49.00
997;DHT22;487;50.126;8.698;2024-03-22T12:56:23;17.40;45.20
997;DHT22;487;50.126;8.698;2024-03-22T12:58:49;17.40;44.40
997;DHT22;487;50.126;8.698;2024-03-22T13:03:44;17.50;40.80
997;DHT22;487;50.126;8.698;2024-03-22T13:06:11;17.50;40.90
997;DHT22;487;50.126;8.698;2024-03-22T13:28:07;17.70;44.50
997;DHT22;487;50.126;8.698;2024-03-22T13:30:34;17.80;44.90
997;DHT22;487;50.126;8.698;2024-03-22T13:33:04;17.80;42.50
997;DHT22;487;50.126;8.698;2024-03-22T13:35:31;17.70;42.30
997;DHT22;487;50.126;8.698;2024-03-22T13:37:58;17.60;42.00
997;DHT22;487;50.126;8.698;2024-03-22T13:40:26;17.60;41.80
997;DHT22;487;50.126;8.698;2024-03-22T13:42:53;17.70;41.80
997;DHT22;487;50.126;8.698;2024-03-22T13:45:19;17.60;41.00
997;DHT22;487;50.126;8.698;2024-03-22T13:47:46;17.60;40.60
997;DHT22;487;50.126;8.698;2024-03-22T13:50:14;17.60;50.80
997;DHT22;487;50.126;8.698;2024-03-22T13:52:41;17.50;39.90
997;DHT22;487;50.126;8.698;2024-03-22T14:07:29;17.30;44.80
997;DHT22;487;50.126;8.698;2024-03-22T14:09:55;17.30;44.90
997;DHT22;487;50.126;8.698;2024-03-22T14:14:48;17.20;43.00
997;DHT22;487;50.126;8.698;2024-03-22T14:22:11;17.30;43.70
997;DHT22;487;50.126;8.698;2024-03-22T14:29:35;17.20;44.00
997;DHT22;487;50.126;8.698;2024-03-22T14:32:03;17.10;44.20
997;DHT22;487;50.126;8.698;2024-03-22T14:34:29;17.20;55.60
997;DHT22;487;50.126;8.698;2024-03-22T14:36:56;17.20;44.20
997;DHT22;487;50.126;8.698;2024-03-22T14:39:22;17.20;44.90
997;DHT22;487;50.126;8.698;2024-03-22T14:41:51;17.20;45.90
997;DHT22;487;50.126;8.698;2024-03-22T14:44:17;17.20;45.40
997;DHT22;487;50.126;8.698;2024-03-22T14:46:44;17.20;47.10
997;DHT22;487;50.126;8.698;2024-03-22T14:51:38;17.20;46.80
997;DHT22;487;50.126;8.698;2024-03-22T15:01:27;17.10;43.80
997;DHT22;487;50.126;8.698;2024-03-22T15:06:20;17.20;45.20
997;DHT22;487;50.126;8.698;2024-03-22T15:16:08;17.40;44.00
997;DHT22;487;50.126;8.698;2024-03-22T15:18:34;17.40;54.00
997;DHT22;487;50.126;8.698;2024-03-22T15:21:02;17.40;54.80
997;DHT22;487;50.126;8.698;2024-03-22T15:23:29;17.50;44.80
997;DHT22;487;50.126;8.698;2024-03-22T15:28:23;17.50;45.30
997;DHT22;487;50.126;8.698;2024-03-22T15:33:18;17.60;43.80
997;DHT22;487;50.126;8.698;2024-03-22T15:38:15;17.60;43.80
997;DHT22;487;50.126;8.698;2024-03-22T16:02:58;18.00;47.50
997;DHT22;487;50.126;8.698;2024-03-22T16:30:07;19.50;43.70
997;DHT22;487;50.126;8.698;2024-03-22T16:37:27;19.40;41.80
997;DHT22;487;50.126;8.698;2024-03-22T16:39:54;19.30;41.50
997;DHT22;487;50.126;8.698;2024-03-22T16:47:15;19.20;40.20
997;DHT22;487;50.126;8.698;2024-03-22T17:24:11;19.10;31.60
997;DHT22;487;50.126;8.698;2024-03-22T17:29:06;18.80;31.10
997;DHT22;487;50.126;8.698;2024-03-22T18:01:04;17.10;36.30
997;DHT22;487;50.126;8.698;2024-03-22T18:03:31;17.20;46.50
997;DHT22;487;50.126;8.698;2024-03-22T18:05:57;16.90;38.50
997;DHT22;487;50.126;8.698;2024-03-22T18:10:58;16.90;39.30
997;DHT22;487;50.126;8.698;2024-03-22T18:13:25;16.90;39.30
997;DHT22;487;50.126;8.698;2024-03-22T18:15:51;16.80;39.50
997;DHT22;487;50.126;8.698;2024-03-22T18:18:18;16.80;50.40
997;DHT22;487;50.126;8.698;2024-03-22T18:20:44;16.80;39.80
997;DHT22;487;50.126;8.698;2024-03-22T18:23:16;16.80;40.10
997;DHT22;487;50.126;8.698;2024-03-22T18:25:44;16.70;40.10
997;DHT22;487;50.126;8.698;2024-03-22T18:28:11;16.70;39.50
997;DHT22;487;50.126;8.698;2024-03-22T18:30:37;16.70;50.60
997;DHT22;487;50.126;8.698;2024-03-22T18:35:30;16.70;40.90
997;DHT22;487;50.126;8.698;2024-03-22T18:42:52;16.60;40.10
997;DHT22;487;50.126;8.698;2024-03-22T18:45:18;16.60;40.60
997;DHT22;487;50.126;8.698;2024-03-22T18:47:45;16.60;40.40
997;DHT22;487;50.126;8.698;2024-03-22T18:50:11;16.50;51.30
997;DHT22;487;50.126;8.698;2024-03-22T18:52:38;16.50;52.20
997;DHT22;487;50.126;8.698;2024-03-22T18:55:05;16.50;52.90
997;DHT22;487;50.126;8.698;2024-03-22T18:57:32;16.50;43.70
997;DHT22;487;50.126;8.698;2024-03-22T19:00:00;16.40;55.00
997;DHT22;487;50.126;8.698;2024-03-22T19:02:27;16.40;45.30
997;DHT22;487;50.126;8.698;2024-03-22T19:04:53;16.30;45.50
997;DHT22;487;50.126;8.698;2024-03-22T19:07:20;16.20;46.20
997;DHT22;487;50.126;8.698;2024-03-22T19:09:46;16.20;47.60
997;DHT22;487;50.126;8.698;2024-03-22T19:12:13;16.10;47.30
997;DHT22;487;50.126;8.698;2024-03-22T19:14:40;16.20;47.90
997;DHT22;487;50.126;8.698;2024-03-22T19:19:34;16.10;48.50
997;DHT22;487;50.126;8.698;2024-03-22T19:22:03;16.00;48.80
997;DHT22;487;50.126;8.698;2024-03-22T19:24:28;16.00;49.50
997;DHT22;487;50.126;8.698;2024-03-22T19:26:55;16.00;50.00
997;DHT22;487;50.126;8.698;2024-03-22T19:29:21;16.00;50.30
997;DHT22;487;50.126;8.698;2024-03-22T19:31:48;16.00;50.90
997;DHT22;487;50.126;8.698;2024-03-22T19:34:16;16.00;61.30
997;DHT22;487;50.126;8.698;2024-03-22T19:36:43;15.90;52.20
997;DHT22;487;50.126;8.698;2024-03-22T19:39:09;15.90;63.80
997;DHT22;487;50.126;8.698;2024-03-22T19:41:37;15.70;52.20
997;DHT22;487;50.126;8.698;2024-03-22T19:44:03;15.80;63.30
997;DHT22;487;50.126;8.698;2024-03-22T19:46:32;15.60;54.00
997;DHT22;487;50.126;8.698;2024-03-22T19:48:59;15.60;64.60
997;DHT22;487;50.126;8.698;2024-03-22T19:51:27;15.60;64.20
997;DHT22;487;50.126;8.698;2024-03-22T19:53:53;15.50;54.60
997;DHT22;487;50.126;8.698;2024-03-22T19:56:20;15.50;54.60
997;DHT22;487;50.126;8.698;2024-03-22T19:58:47;15.50;55.80
997;DHT22;487;50.126;8.698;2024-03-22T20:01:14;15.50;56.00
997;DHT22;487;50.126;8.698;2024-03-22T20:03:41;15.50;56.40
997;DHT22;487;50.126;8.698;2024-03-22T20:06:08;15.50;57.80
997;DHT22;487;50.126;8.698;2024-03-22T20:08:35;15.50;58.20
997;DHT22;487;50.126;8.698;2024-03-22T20:11:03;15.50;58.10
997;DHT22;487;50.126;8.698;2024-03-22T20:13:29;15.50;58.80
997;DHT22;487;50.126;8.698;2024-03-22T20:15:56;15.40;58.70
997;DHT22;487;50.126;8.698;2024-03-22T20:18:22;15.30;59.10
997;DHT22;487;50.126;8.698;2024-03-22T20:20:50;15.30;59.00
997;DHT22;487;50.126;8.698;2024-03-22T20:23:16;15.30;59.20
997;DHT22;487;50.126;8.698;2024-03-22T20:25:44;15.10;59.80
997;DHT22;487;50.126;8.698;2024-03-22T20:28:12;15.20;71.60
997;DHT22;487;50.126;8.698;2024-03-22T20:30:39;15.00;60.30
997;DHT22;487;50.126;8.698;2024-03-22T20:33:05;15.00;71.50
997;DHT22;487;50.126;8.698;2024-03-22T20:35:32;14.90;61.70
997;DHT22;487;50.126;8.698;2024-03-22T20:37:59;14.80;61.70
